Time;durP1;ratioP1;P1;durP2;ratioP2;P2;SDS_P1;SDS_P2;PMS_P1;PMS_P2;Temp;Humidity;BMP_temperature;BMP_pressure;BME280_temperature;BME280_humidity;BME280_pressure;Samples;Min_cycle;Max_cycle;Signal;HPM_P1;HPM_P2
2024/02/14 00:00:34;;;;;;;15.85;8.95;;;8.20;99.90;;;;;;5060740;28;20205;-51
2024/02/14 00:03:01;;;;;;;11.80;8.55;;;8.20;99.90;;;;;;5060520;28;20186;-54
2024/02/14 00:05:28;;;;;;;13.27;8.45;;;8.20;99.90;;;;;;5060598;28;20285;-53
2024/02/14 00:07:54;;;;;;;14.15;8.27;;;8.20;99.90;;;;;;5060558;28;20224;-52
2024/02/14 00:10:20;;;;;;;14.23;8.73;;;8.20;99.90;;;;;;5060955;28;20202;-51
2024/02/14 00:12:46;;;;;;;15.27;8.68;;;8.20;99.90;;;;;;5061178;28;20228;-54
2024/02/14 00:15:13;;;;;;;13.02;8.77;;;8.20;99.90;;;;;;5060213;28;20676;-55
2024/02/14 00:17:38;;;;;;;12.80;9.05;;;8.20;99.90;;;;;;5060281;28;20202;-55
2024/02/14 00:20:05;;;;;;;12.80;9.30;;;8.20;99.90;;;;;;5060665;28;20204;-53
2024/02/14 00:22:31;;;;;;;13.55;9.50;;;8.20;99.90;;;;;;5060584;28;20194;-50
2024/02/14 00:24:57;;;;;;;15.48;9.57;;;8.20;99.90;;;;;;5060061;28;20186;-52
2024/02/14 00:27:24;;;;;;;16.48;9.65;;;8.20;99.90;;;;;;5060834;28;20225;-53
2024/02/14 00:29:50;;;;;;;14.25;9.55;;;8.20;99.90;;;;;;5059953;28;20183;-51
2024/02/14 00:32:15;;;;;;;13.98;10.07;;;8.20;99.90;;;;;;5060480;28;20614;-55
2024/02/14 00:34:41;;;;;;;13.73;10.13;;;8.20;99.90;;;;;;5060128;28;20237;-52
2024/02/14 00:37:07;;;;;;;14.80;10.40;;;8.20;99.90;;;;;;5042544;28;20194;-54
2024/02/14 00:39:33;;;;;;;14.70;9.98;;;8.20;99.90;;;;;;5060522;28;20194;-54
2024/02/14 00:41:59;;;;;;;13.57;10.02;;;8.20;99.90;;;;;;5059205;28;20232;-54
2024/02/14 00:44:25;;;;;;;15.20;11.30;;;8.20;99.90;;;;;;5059613;28;21951;-53
2024/02/14 00:46:57;;;;;;;13.50;10.65;;;8.20;99.90;;;;;;5060662;28;20210;-54
2024/02/14 00:49:23;;;;;;;15.30;11.07;;;8.20;99.90;;;;;;5060168;28;20210;-53
2024/02/14 00:51:48;;;;;;;13.50;10.57;;;8.20;99.90;;;;;;5060415;28;20225;-50
2024/02/14 00:54:14;;;;;;;14.15;11.13;;;8.20;99.90;;;;;;5060670;28;20187;-50
2024/02/14 00:56:40;;;;;;;14.45;10.77;;;8.20;99.90;;;;;;5060111;28;20193;-55
2024/02/14 00:59:07;;;;;;;18.55;11.25;;;8.20;99.90;;;;;;5060042;28;20186;-51
2024/02/14 01:01:34;;;;;;;15.27;11.32;;;8.20;99.90;;;;;;5060449;28;20191;-54
2024/02/14 01:03:59;;;;;;;18.02;10.68;;;8.20;99.90;;;;;;5060115;28;20241;-51
2024/02/14 01:06:26;;;;;;;16.38;11.50;;;8.20;99.90;;;;;;5063429;28;20207;-53
2024/02/14 01:08:53;;;;;;;15.30;11.40;;;8.20;99.90;;;;;;5064262;28;20248;-45
2024/02/14 01:11:18;;;;;;;13.95;11.13;;;8.20;99.90;;;;;;5062457;28;20206;-51
2024/02/14 01:13:44;;;;;;;14.52;11.40;;;8.20;99.90;;;;;;5064038;28;20874;-49
2024/02/14 01:16:10;;;;;;;16.25;11.65;;;8.20;99.90;;;;;;5062908;28;20527;-52
2024/02/14 01:18:35;;;;;;;13.93;11.57;;;8.20;99.90;;;;;;5063710;28;20187;-55
2024/02/14 01:21:01;;;;;;;15.27;11.80;;;8.20;99.90;;;;;;5063581;28;20191;-54
2024/02/14 01:23:27;;;;;;;14.35;11.07;;;8.20;99.90;;;;;;5063602;28;20207;-55
2024/02/14 01:25:54;;;;;;;14.48;11.23;;;8.30;99.90;;;;;;5063247;28;20277;-55
2024/02/14 01:28:20;;;;;;;13.30;10.80;;;8.30;99.90;;;;;;5060899;28;20565;-53
2024/02/14 01:30:46;;;;;;;11.57;9.95;;;8.20;99.90;;;;;;5063148;28;20627;-50
2024/02/14 01:33:12;;;;;;;12.77;10.38;;;8.30;99.90;;;;;;5063336;28;20273;-53
2024/02/14 01:35:38;;;;;;;11.20;9.77;;;8.30;99.90;;;;;;5063158;28;20271;-53
2024/02/14 01:38:04;;;;;;;12.18;10.02;;;8.30;99.90;;;;;;5062935;28;20206;-52
2024/02/14 01:40:30;;;;;;;13.10;10.55;;;8.30;99.90;;;;;;5044622;28;20186;-52
2024/02/14 01:42:56;;;;;;;12.20;9.73;;;8.30;99.90;;;;;;5063479;28;20199;-52
2024/02/14 01:45:22;;;;;;;11.57;9.23;;;8.30;99.90;;;;;;5062318;28;20248;-50
2024/02/14 01:47:50;;;;;;;13.13;9.38;;;8.30;99.90;;;;;;5062231;28;20213;-52
2024/02/14 01:50:16;;;;;;;10.88;8.95;;;8.30;99.90;;;;;;5062348;28;20299;-54
2024/02/14 01:52:44;;;;;;;13.20;9.65;;;8.40;99.90;;;;;;5062491;28;20213;-54
2024/02/14 01:55:12;;;;;;;11.27;9.05;;;8.40;99.90;;;;;;5062755;28;20201;-56
2024/02/14 01:57:39;;;;;;;10.77;8.85;;;8.40;99.90;;;;;;5078003;28;20194;-52
2024/02/14 02:00:08;;;;;;;12.75;8.52;;;8.40;99.90;;;;;;5062461;28;20252;-54
2024/02/14 02:02:39;;;;;;;9.40;8.38;;;8.40;99.90;;;;;;5062951;28;20195;-51
2024/02/14 02:05:11;;;;;;;10.27;8.18;;;8.40;99.90;;;;;;5061319;28;20281;-54
2024/02/14 02:07:39;;;;;;;10.23;8.57;;;8.50;99.90;;;;;;5062644;28;20214;-52
2024/02/14 02:10:06;;;;;;;8.98;8.07;;;8.50;99.90;;;;;;5062189;28;20190;-51
2024/02/14 02:12:32;;;;;;;9.77;8.23;;;8.50;99.90;;;;;;5061319;28;20186;-49
2024/02/14 02:14:58;;;;;;;8.85;7.80;;;8.50;99.90;;;;;;5044348;28;20199;-54
2024/02/14 02:17:24;;;;;;;8.55;7.65;;;8.50;99.90;;;;;;5062043;28;21185;-54
2024/02/14 02:19:53;;;;;;;9.10;7.28;;;8.50;99.90;;;;;;5062435;28;20201;-55
2024/02/14 02:22:18;;;;;;;8.18;7.25;;;8.50;99.90;;;;;;5061873;28;20198;-53
2024/02/14 02:24:45;;;;;;;8.48;7.47;;;8.60;99.90;;;;;;5061912;28;20203;-53
2024/02/14 02:27:13;;;;;;;9.20;8.15;;;8.60;99.90;;;;;;5062119;28;20237;-55
2024/02/14 02:29:39;;;;;;;9.40;7.30;;;8.60;99.90;;;;;;5062247;28;20506;-56
2024/02/14 02:32:06;;;;;;;8.13;7.28;;;8.70;99.90;;;;;;5061757;28;20187;-54
2024/02/14 02:34:32;;;;;;;9.32;7.32;;;8.70;99.90;;;;;;5062107;28;20555;-50
2024/02/14 02:36:57;;;;;;;8.30;7.47;;;8.70;99.90;;;;;;5062203;28;20187;-50
2024/02/14 02:39:23;;;;;;;8.77;7.88;;;8.70;99.90;;;;;;5061080;28;20198;-49
2024/02/14 02:41:49;;;;;;;8.80;7.18;;;8.70;99.90;;;;;;5058819;28;20194;-51
2024/02/14 02:44:15;;;;;;;8.20;7.22;;;8.70;99.90;;;;;;5061735;28;20230;-53
2024/02/14 02:46:41;;;;;;;7.53;6.78;;;8.80;99.90;;;;;;5061871;28;20206;-54
2024/02/14 02:49:07;;;;;;;8.32;7.25;;;8.80;99.90;;;;;;5061900;28;21076;-51
2024/02/14 02:51:33;;;;;;;8.63;7.30;;;8.80;99.90;;;;;;5060792;28;20190;-55
2024/02/14 02:53:59;;;;;;;8.02;7.22;;;8.80;99.90;;;;;;5060391;28;20563;-55
2024/02/14 02:56:27;;;;;;;7.93;7.13;;;8.90;99.90;;;;;;5061566;28;20569;-54
2024/02/14 02:58:55;;;;;;;8.82;7.25;;;8.90;99.90;;;;;;5061875;28;20258;-52
2024/02/14 03:01:23;;;;;;;8.85;7.75;;;8.90;99.90;;;;;;5060438;28;20267;-52
2024/02/14 03:03:49;;;;;;;9.93;7.68;;;8.90;99.90;;;;;;5060629;28;20819;-53
2024/02/14 03:06:15;;;;;;;7.72;6.80;;;8.90;99.90;;;;;;5061124;28;20186;-51
2024/02/14 03:08:40;;;;;;;8.25;7.15;;;8.90;99.90;;;;;;5061491;28;20240;-55
2024/02/14 03:11:07;;;;;;;7.85;7.05;;;8.90;99.90;;;;;;5060120;28;20183;-54
2024/02/14 03:13:33;;;;;;;7.55;6.57;;;8.90;99.90;;;;;;5091150;28;20201;-50
2024/02/14 03:15:59;;;;;;;7.47;6.63;;;9.00;99.90;;;;;;5061087;28;20215;-53
2024/02/14 03:18:25;;;;;;;8.10;7.03;;;9.00;99.90;;;;;;5061010;28;20182;-50
2024/02/14 03:20:53;;;;;;;7.78;6.97;;;9.00;99.90;;;;;;5061782;28;20677;-50
2024/02/14 03:23:19;;;;;;;7.53;6.72;;;9.00;99.90;;;;;;5059883;28;20658;-49
2024/02/14 03:25:44;;;;;;;10.05;6.65;;;9.00;99.90;;;;;;5061056;28;20193;-52
2024/02/14 03:28:13;;;;;;;7.55;6.72;;;9.10;99.90;;;;;;5060915;28;20202;-54
2024/02/14 03:30:42;;;;;;;8.18;7.20;;;9.00;99.90;;;;;;5059405;28;20210;-51
2024/02/14 03:33:10;;;;;;;8.25;6.68;;;9.10;99.90;;;;;;5061263;28;20277;-53
2024/02/14 03:35:36;;;;;;;7.28;6.57;;;9.10;99.90;;;;;;5061273;28;20191;-53
2024/02/14 03:38:02;;;;;;;7.78;6.97;;;9.10;99.90;;;;;;5061382;28;20695;-49
2024/02/14 03:40:30;;;;;;;7.35;6.57;;;9.10;99.90;;;;;;5060704;28;20245;-51
2024/02/14 03:42:56;;;;;;;7.20;6.50;;;9.10;99.90;;;;;;5060611;28;20218;-48
2024/02/14 03:45:22;;;;;;;7.18;6.45;;;9.10;99.90;;;;;;5060880;28;20234;-52
2024/02/14 03:47:48;;;;;;;7.85;6.60;;;9.10;99.90;;;;;;5060717;28;20225;-53
2024/02/14 03:50:15;;;;;;;6.80;6.07;;;9.20;99.90;;;;;;5060544;28;20659;-54
2024/02/14 03:52:42;;;;;;;6.60;5.68;;;9.20;99.90;;;;;;5060558;28;20642;-51
2024/02/14 03:55:13;;;;;;;6.93;6.18;;;9.20;99.90;;;;;;5060551;28;20282;-49
2024/02/14 03:57:39;;;;;;;6.70;6.00;;;9.20;99.90;;;;;;5060665;28;20191;-53
2024/02/14 04:00:08;;;;;;;6.18;5.57;;;9.20;99.90;;;;;;5060794;28;20238;-50
2024/02/14 04:02:40;;;;;;;6.95;6.25;;;9.30;99.90;;;;;;5044094;28;21110;-51
2024/02/14 04:05:07;;;;;;;7.30;5.95;;;9.30;99.90;;;;;;5059641;28;20194;-53
2024/02/14 04:07:34;;;;;;;6.68;5.97;;;9.30;99.90;;;;;;5061025;28;20293;-50
2024/02/14 04:10:00;;;;;;;6.82;6.13;;;9.30;99.90;;;;;;5060879;28;20195;-49
2024/02/14 04:12:25;;;;;;;6.70;6.07;;;9.40;99.90;;;;;;5061035;28;20190;-53
2024/02/14 04:14:51;;;;;;;7.30;6.35;;;9.40;99.90;;;;;;5075790;28;20198;-48
2024/02/14 04:17:17;;;;;;;7.90;6.47;;;9.40;99.90;;;;;;5060963;28;20178;-50
2024/02/14 04:19:43;;;;;;;7.45;6.65;;;9.40;99.90;;;;;;5060866;28;20187;-50
2024/02/14 04:22:09;;;;;;;7.32;6.43;;;9.40;99.90;;;;;;5060384;28;20199;-49
2024/02/14 04:24:34;;;;;;;7.55;6.75;;;9.50;99.90;;;;;;5060141;28;20289;-54
2024/02/14 04:27:02;;;;;;;8.13;7.30;;;9.50;99.90;;;;;;5058592;28;20298;-51
2024/02/14 04:29:30;;;;;;;8.75;7.38;;;9.50;99.90;;;;;;5060587;28;20179;-52
2024/02/14 04:31:56;;;;;;;8.60;7.70;;;9.50;99.90;;;;;;5056511;28;20206;-54
2024/02/14 04:34:23;;;;;;;8.75;7.85;;;9.60;99.90;;;;;;5060395;28;20183;-55
2024/02/14 04:36:48;;;;;;;8.30;7.50;;;9.60;99.90;;;;;;5060360;28;20670;-49
2024/02/14 04:39:14;;;;;;;8.80;7.90;;;9.60;99.90;;;;;;5060529;28;20186;-54
2024/02/14 04:41:40;;;;;;;9.48;8.48;;;9.60;99.90;;;;;;5063109;28;20186;-52
2024/02/14 04:44:08;;;;;;;9.82;8.70;;;9.70;99.90;;;;;;5063682;28;20197;-51
2024/02/14 04:46:35;;;;;;;10.27;9.00;;;9.70;99.90;;;;;;5064050;28;20695;-52
2024/02/14 04:49:04;;;;;;;10.38;9.15;;;9.70;99.90;;;;;;5063884;28;20218;-50
2024/02/14 04:51:30;;;;;;;10.13;8.75;;;9.70;99.90;;;;;;5064170;28;20232;-52
2024/02/14 04:53:59;;;;;;;10.10;9.02;;;9.80;99.90;;;;;;5063537;28;20309;-53
2024/02/14 04:56:27;;;;;;;10.20;8.77;;;9.80;99.90;;;;;;5063687;28;20210;-53
2024/02/14 04:58:55;;;;;;;10.30;9.30;;;9.90;99.90;;;;;;5064395;28;20625;-53
2024/02/14 05:01:21;;;;;;;11.55;8.85;;;9.90;99.90;;;;;;5063825;28;20643;-53
2024/02/14 05:03:49;;;;;;;10.80;8.52;;;9.90;99.90;;;;;;5063325;28;20201;-52
2024/02/14 05:06:15;;;;;;;9.35;8.32;;;9.90;99.90;;;;;;5063510;28;20190;-52
2024/02/14 05:08:41;;;;;;;9.80;8.55;;;9.90;99.90;;;;;;5063470;28;20619;-52
2024/02/14 05:11:07;;;;;;;9.63;8.60;;;10.00;99.90;;;;;;5064298;28;20211;-53
2024/02/14 05:13:33;;;;;;;10.32;9.23;;;10.00;99.90;;;;;;5062549;28;20191;-51
2024/02/14 05:16:02;;;;;;;9.73;8.73;;;10.00;99.90;;;;;;5063393;28;20190;-53
2024/02/14 05:18:27;;;;;;;9.02;8.13;;;10.00;99.90;;;;;;5061351;28;20194;-52
2024/02/14 05:20:53;;;;;;;9.63;7.95;;;10.00;99.90;;;;;;5062273;28;20201;-51
2024/02/14 05:23:19;;;;;;;8.77;7.88;;;10.10;99.90;;;;;;5063147;28;20193;-51
2024/02/14 05:25:45;;;;;;;9.20;8.15;;;10.10;99.90;;;;;;5061364;28;20222;-53
2024/02/14 05:28:14;;;;;;;9.65;8.38;;;10.10;99.90;;;;;;5061032;28;20309;-50
2024/02/14 05:30:43;;;;;;;8.52;7.60;;;10.10;99.90;;;;;;5063648;28;20205;-50
2024/02/14 05:33:08;;;;;;;10.65;8.07;;;10.10;99.90;;;;;;5063119;28;20206;-52
2024/02/14 05:35:34;;;;;;;8.55;7.70;;;10.10;99.90;;;;;;5063273;28;20229;-52
2024/02/14 05:38:00;;;;;;;9.73;7.90;;;10.20;99.90;;;;;;5063079;28;20668;-48
2024/02/14 05:40:26;;;;;;;7.97;7.18;;;10.20;99.90;;;;;;5063273;28;20213;-54
2024/02/14 05:42:51;;;;;;;9.98;8.00;;;10.20;99.90;;;;;;5062788;28;20277;-48
2024/02/14 05:45:17;;;;;;;10.02;7.57;;;10.20;99.90;;;;;;5063229;28;20218;-47
2024/02/14 05:47:43;;;;;;;8.45;7.47;;;10.20;99.90;;;;;;5060992;28;20262;-52
2024/02/14 05:50:11;;;;;;;8.50;7.60;;;10.20;99.90;;;;;;5061115;28;20666;-48
2024/02/14 05:52:37;;;;;;;8.77;7.70;;;10.20;99.90;;;;;;5061908;28;20195;-49
2024/02/14 05:55:03;;;;;;;8.70;7.15;;;10.30;99.90;;;;;;5062114;28;20589;-54
2024/02/14 05:57:30;;;;;;;12.70;9.40;;;10.30;99.90;;;;;;5061535;28;20491;-46
2024/02/14 05:59:56;;;;;;;9.57;7.70;;;10.40;99.90;;;;;;5061354;28;20190;-53
2024/02/14 06:02:22;;;;;;;13.25;8.05;;;10.30;99.90;;;;;;5061144;28;20230;-48
2024/02/14 06:04:47;;;;;;;9.07;7.93;;;10.30;99.90;;;;;;5062097;28;20281;-51
2024/02/14 06:07:13;;;;;;;10.02;7.65;;;10.40;99.90;;;;;;5061311;28;20218;-53
2024/02/14 06:09:40;;;;;;;10.73;7.30;;;10.30;99.90;;;;;;5078381;28;20567;-52
2024/02/14 06:12:06;;;;;;;7.60;6.22;;;10.40;99.90;;;;;;5062507;28;20285;-51
2024/02/14 06:14:34;;;;;;;9.52;6.88;;;10.40;99.90;;;;;;5062275;28;20666;-49
2024/02/14 06:17:00;;;;;;;9.65;6.95;;;10.40;99.90;;;;;;5062139;28;20616;-49
2024/02/14 06:19:26;;;;;;;9.82;6.72;;;10.40;99.90;;;;;;5061744;28;20207;-52
2024/02/14 06:21:52;;;;;;;8.77;6.82;;;10.40;99.90;;;;;;5062534;28;20179;-52
2024/02/14 06:24:19;;;;;;;8.48;6.50;;;10.40;99.90;;;;;;5062330;28;20190;-53
2024/02/14 06:26:46;;;;;;;9.20;6.68;;;10.40;99.90;;;;;;5062072;28;20190;-54
2024/02/14 06:29:11;;;;;;;8.35;5.93;;;10.40;99.90;;;;;;5049770;28;20187;-54
2024/02/14 06:31:37;;;;;;;9.13;6.57;;;10.40;99.90;;;;;;5060488;28;20665;-53
2024/02/14 06:34:03;;;;;;;10.50;7.15;;;10.40;99.90;;;;;;5062281;28;20187;-51
2024/02/14 06:36:29;;;;;;;14.45;7.07;;;10.50;99.90;;;;;;5060054;28;20239;-51
2024/02/14 06:38:54;;;;;;;14.38;6.88;;;10.50;99.90;;;;;;5061612;28;20625;-55
2024/02/14 06:41:20;;;;;;;21.40;8.65;;;10.50;99.90;;;;;;5062227;28;20198;-53
2024/02/14 06:43:46;;;;;;;28.42;8.93;;;10.50;99.90;;;;;;5040223;28;20282;-54
2024/02/14 06:46:12;;;;;;;26.40;9.27;;;10.50;99.90;;;;;;5044037;28;20286;-53
2024/02/14 06:48:38;;;;;;;32.55;8.80;;;10.50;99.90;;;;;;5058996;28;20677;-55
2024/02/14 06:51:06;;;;;;;44.25;10.40;;;10.60;99.90;;;;;;5044478;28;20710;-53
2024/02/14 06:53:32;;;;;;;35.85;9.73;;;10.60;99.90;;;;;;5061729;28;20190;-51
2024/02/14 06:55:58;;;;;;;43.83;10.75;;;10.60;99.90;;;;;;5061036;28;20272;-53
2024/02/14 06:58:24;;;;;;;49.70;11.02;;;10.60;99.90;;;;;;5059459;28;20198;-54
2024/02/14 07:00:49;;;;;;;45.17;10.10;;;10.70;99.90;;;;;;5042960;28;20194;-54
2024/02/14 07:03:15;;;;;;;45.22;10.68;;;10.60;99.90;;;;;;5061138;28;20197;-53
2024/02/14 07:05:41;;;;;;;36.53;9.23;;;10.70;99.90;;;;;;5044051;28;20646;-50
2024/02/14 07:08:07;;;;;;;38.00;8.90;;;10.70;99.90;;;;;;5060881;28;20620;-58
2024/02/14 07:10:33;;;;;;;38.83;9.30;;;10.70;99.90;;;;;;5061128;28;20209;-54
2024/02/14 07:12:59;;;;;;;36.75;8.75;;;10.70;99.90;;;;;;5059638;28;20216;-52
2024/02/14 07:15:28;;;;;;;30.48;7.80;;;10.70;99.90;;;;;;5060398;28;20218;-53
2024/02/14 07:17:55;;;;;;;36.10;8.70;;;10.80;99.90;;;;;;5060612;28;20198;-54
2024/02/14 07:20:21;;;;;;;39.42;8.00;;;10.80;99.90;;;;;;5060907;28;20199;-54
2024/02/14 07:22:52;;;;;;;35.35;8.18;;;10.80;99.90;;;;;;5060585;28;20194;-54
2024/02/14 07:25:21;;;;;;;44.15;8.02;;;10.80;99.90;;;;;;5057762;28;20214;-55
2024/02/14 07:27:49;;;;;;;40.03;8.15;;;10.80;99.90;;;;;;5061072;28;20239;-50
2024/02/14 07:30:18;;;;;;;47.05;8.45;;;10.90;99.90;;;;;;5058920;28;20198;-54
2024/02/14 07:32:44;;;;;;;45.47;8.05;;;10.90;99.90;;;;;;5059620;28;20236;-52
2024/02/14 07:35:10;;;;;;;46.38;7.90;;;10.90;99.90;;;;;;5059103;28;20218;-54
2024/02/14 07:37:36;;;;;;;52.50;8.52;;;10.90;99.90;;;;;;5060516;28;20198;-54
2024/02/14 07:40:03;;;;;;;49.72;8.88;;;10.90;99.90;;;;;;5059544;28;20190;-53
2024/02/14 07:42:28;;;;;;;51.85;8.65;;;10.90;99.90;;;;;;5061346;28;20195;-50
2024/02/14 07:44:56;;;;;;;47.33;8.90;;;11.00;99.90;;;;;;5059478;28;20751;-50
2024/02/14 07:47:21;;;;;;;49.88;8.82;;;11.00;99.90;;;;;;5059298;28;20214;-55
2024/02/14 07:49:47;;;;;;;47.47;8.88;;;11.00;99.90;;;;;;5060542;28;20240;-53
2024/02/14 07:52:13;;;;;;;50.75;8.73;;;11.10;99.90;;;;;;5060336;28;20186;-53
2024/02/14 07:54:39;;;;;;;48.38;8.52;;;11.10;99.90;;;;;;5060697;28;20202;-55
2024/02/14 07:57:05;;;;;;;47.28;8.88;;;11.10;99.90;;;;;;5042536;28;20242;-53
2024/02/14 07:59:30;;;;;;;40.47;9.10;;;11.20;99.90;;;;;;5059652;28;20225;-55
2024/02/14 08:01:57;;;;;;;45.55;8.68;;;11.20;99.90;;;;;;5060118;28;20605;-52
2024/02/14 08:04:23;;;;;;;36.58;8.38;;;11.10;99.90;;;;;;5059726;28;20665;-54
2024/02/14 08:06:51;;;;;;;42.60;8.60;;;11.20;99.90;;;;;;5042491;28;20183;-56
2024/02/14 08:09:17;;;;;;;51.20;8.63;;;11.20;99.90;;;;;;5059846;28;20309;-52
2024/02/14 08:11:43;;;;;;;60.88;8.55;;;11.20;99.90;;;;;;5058976;28;21248;-54
2024/02/14 08:14:08;;;;;;;46.05;9.00;;;11.20;99.90;;;;;;5058957;28;20647;-53
2024/02/14 08:16:35;;;;;;;43.70;8.63;;;11.20;99.90;;;;;;5063975;28;20183;-53
2024/02/14 08:19:02;;;;;;;56.28;8.98;;;11.20;99.90;;;;;;5064808;28;20559;-55
2024/02/14 08:21:28;;;;;;;56.47;9.45;;;11.20;99.90;;;;;;5063774;28;20226;-54
2024/02/14 08:23:55;;;;;;;54.75;10.02;;;11.30;99.90;;;;;;5064218;28;20225;-53
2024/02/14 08:26:24;;;;;;;48.03;8.45;;;11.30;99.90;;;;;;5062540;28;20195;-54
2024/02/14 08:28:50;;;;;;;48.08;8.80;;;11.30;99.90;;;;;;5063303;28;20206;-52
2024/02/14 08:31:16;;;;;;;38.95;7.80;;;11.30;99.90;;;;;;5061553;28;20196;-54
2024/02/14 08:33:41;;;;;;;41.65;8.30;;;11.40;99.90;;;;;;5062221;28;20198;-56
2024/02/14 08:36:07;;;;;;;53.70;9.40;;;11.40;99.90;;;;;;5062971;28;20179;-51
2024/02/14 08:38:34;;;;;;;52.85;8.50;;;11.40;99.90;;;;;;5061697;28;20206;-49
2024/02/14 08:41:02;;;;;;;46.83;9.40;;;11.50;99.90;;;;;;5062135;28;20198;-54
2024/02/14 08:43:31;;;;;;;44.08;8.80;;;11.50;99.90;;;;;;5060736;28;20243;-52
2024/02/14 08:45:57;;;;;;;44.63;9.57;;;11.50;99.90;;;;;;5061386;28;20226;-54
2024/02/14 08:48:23;;;;;;;45.53;9.07;;;11.50;99.90;;;;;;5061532;28;20262;-56
2024/02/14 08:50:49;;;;;;;45.92;9.45;;;11.50;99.90;;;;;;5061895;28;20193;-50
2024/02/14 08:53:15;;;;;;;35.60;7.97;;;11.60;99.90;;;;;;5061653;28;20183;-53
2024/02/14 08:55:41;;;;;;;30.58;8.15;;;11.60;99.90;;;;;;5062614;28;20234;-53
2024/02/14 08:58:09;;;;;;;36.08;8.38;;;11.70;99.90;;;;;;5062225;28;20259;-54
2024/02/14 09:00:35;;;;;;;37.15;8.68;;;11.70;99.90;;;;;;5062635;28;20202;-53
2024/02/14 09:03:03;;;;;;;32.38;8.10;;;11.70;99.90;;;;;;5061254;28;20195;-55
2024/02/14 09:05:28;;;;;;;26.25;7.68;;;11.70;99.90;;;;;;5060834;28;20209;-51
2024/02/14 09:07:54;;;;;;;31.42;8.43;;;11.70;99.90;;;;;;5060547;28;20229;-51
2024/02/14 09:10:21;;;;;;;35.67;8.88;;;11.70;99.90;;;;;;5062112;28;20197;-52
2024/02/14 09:12:47;;;;;;;32.00;9.27;;;11.70;99.90;;;;;;5062628;28;20320;-51
2024/02/14 09:15:13;;;;;;;30.95;9.77;;;11.80;99.90;;;;;;5059578;28;20271;-52
2024/02/14 09:17:40;;;;;;;32.75;9.85;;;11.80;99.90;;;;;;5062017;28;20198;-54
2024/02/14 09:20:10;;;;;;;30.35;9.90;;;11.80;99.90;;;;;;5061715;28;20290;-55
2024/02/14 09:22:36;;;;;;;28.33;10.00;;;11.80;99.90;;;;;;5061891;28;20290;-54
2024/02/14 09:25:05;;;;;;;31.58;11.70;;;11.80;99.90;;;;;;5061779;28;20594;-55
2024/02/14 09:27:32;;;;;;;29.25;11.77;;;11.90;99.90;;;;;;5061378;28;20249;-55
2024/02/14 09:29:58;;;;;;;36.38;12.20;;;11.90;99.90;;;;;;5059532;28;20240;-55
2024/02/14 09:32:24;;;;;;;39.38;12.95;;;11.90;99.90;;;;;;5061235;28;20537;-50
2024/02/14 09:34:50;;;;;;;35.20;13.43;;;11.90;99.90;;;;;;5060880;28;20421;-52
2024/02/14 09:37:16;;;;;;;34.85;13.80;;;12.00;99.90;;;;;;5061395;28;21022;-55
2024/02/14 09:39:43;;;;;;;35.25;12.55;;;12.10;99.90;;;;;;5062489;28;20289;-49
2024/02/14 09:42:13;;;;;;;38.50;12.73;;;12.10;99.90;;;;;;5061932;28;20213;-54
2024/02/14 09:44:40;;;;;;;34.97;12.73;;;12.10;99.90;;;;;;5062046;28;20214;-53
2024/02/14 09:47:07;;;;;;;37.85;12.45;;;12.10;99.90;;;;;;5060878;28;20198;-53
2024/02/14 09:49:35;;;;;;;32.47;10.98;;;12.20;99.90;;;;;;5062188;28;20276;-50
2024/02/14 09:52:03;;;;;;;32.45;12.02;;;12.20;99.90;;;;;;5061909;28;20638;-51
2024/02/14 09:54:31;;;;;;;38.35;12.45;;;12.20;99.90;;;;;;5062651;28;20191;-49
2024/02/14 09:56:58;;;;;;;33.15;11.02;;;12.20;99.90;;;;;;5060496;28;20188;-51
2024/02/14 09:59:24;;;;;;;27.77;10.98;;;12.20;99.90;;;;;;5061595;28;20195;-50
2024/02/14 10:01:51;;;;;;;28.05;10.32;;;12.20;99.90;;;;;;5061576;28;20220;-54
2024/02/14 10:04:18;;;;;;;28.30;9.82;;;12.20;99.90;;;;;;5062529;28;20204;-53
2024/02/14 10:06:45;;;;;;;30.08;10.13;;;12.20;99.90;;;;;;5061712;28;20690;-53
2024/02/14 10:09:10;;;;;;;24.13;9.20;;;12.10;99.90;;;;;;5060280;28;20226;-53
2024/02/14 10:11:37;;;;;;;24.73;9.30;;;12.20;99.90;;;;;;5061660;28;21039;-52
2024/02/14 10:14:08;;;;;;;22.80;9.38;;;12.10;99.90;;;;;;5077674;28;20182;-53
2024/02/14 10:16:35;;;;;;;24.05;8.95;;;12.10;99.90;;;;;;5062370;28;20689;-56
2024/02/14 10:19:01;;;;;;;27.60;8.80;;;12.10;99.90;;;;;;5061155;28;20272;-52
2024/02/14 10:21:28;;;;;;;20.10;8.55;;;12.10;99.90;;;;;;5060890;28;20194;-50
2024/02/14 10:23:57;;;;;;;24.63;8.38;;;12.10;99.90;;;;;;5061554;28;20214;-53
2024/02/14 10:26:23;;;;;;;20.77;8.52;;;12.20;99.90;;;;;;5061882;28;20200;-52
2024/02/14 10:28:51;;;;;;;19.52;7.75;;;12.20;99.90;;;;;;5062129;28;20253;-55
2024/02/14 10:31:17;;;;;;;14.55;6.60;;;12.20;99.90;;;;;;5061099;28;20202;-51
2024/02/14 10:33:43;;;;;;;17.13;7.40;;;12.20;99.90;;;;;;5062170;28;20175;-52
2024/02/14 10:36:11;;;;;;;15.07;7.05;;;12.20;99.90;;;;;;5061886;28;20197;-55
2024/02/14 10:38:39;;;;;;;17.63;7.45;;;12.20;99.90;;;;;;5060480;28;20590;-54
2024/02/14 10:41:05;;;;;;;20.52;8.60;;;12.30;99.90;;;;;;5060097;28;20286;-52
2024/02/14 10:43:31;;;;;;;21.35;8.15;;;12.30;99.90;;;;;;5061059;28;20294;-51
2024/02/14 10:46:00;;;;;;;17.95;8.32;;;12.30;99.90;;;;;;5060846;28;20214;-54
2024/02/14 10:48:33;;;;;;;18.40;7.85;;;12.30;99.90;;;;;;5061385;28;20313;-54
2024/02/14 10:51:02;;;;;;;12.23;7.65;;;12.40;99.90;;;;;;5059544;28;20225;-54
2024/02/14 10:53:31;;;;;;;13.93;6.90;;;12.30;99.90;;;;;;5061216;28;20265;-55
2024/02/14 10:55:58;;;;;;;15.13;6.75;;;12.40;99.90;;;;;;5061035;28;20501;-52
2024/02/14 10:58:26;;;;;;;11.73;6.60;;;12.40;99.90;;;;;;5061490;28;20721;-54
2024/02/14 11:00:52;;;;;;;9.18;5.72;;;12.40;99.90;;;;;;5061510;28;20651;-50
2024/02/14 11:03:18;;;;;;;11.63;6.55;;;12.50;99.90;;;;;;5061359;28;20213;-52
2024/02/14 11:05:49;;;;;;;10.18;5.88;;;12.50;99.90;;;;;;5061307;28;20194;-53
2024/02/14 11:08:18;;;;;;;6.53;4.40;;;12.50;99.90;;;;;;5060601;28;20317;-56
2024/02/14 11:10:54;;;;;;;6.70;4.30;;;12.50;99.90;;;;;;5060717;28;20305;-56
2024/02/14 11:13:21;;;;;;;8.95;4.25;;;12.50;99.90;;;;;;5060870;28;20659;-51
2024/02/14 11:15:51;;;;;;;8.27;4.72;;;12.50;99.90;;;;;;5060107;28;20218;-58
2024/02/14 11:18:33;;;;;;;6.65;4.15;;;12.50;99.90;;;;;;5060213;28;20201;-55
2024/02/14 11:20:58;;;;;;;8.15;4.18;;;12.60;99.90;;;;;;5059363;28;20228;-56
2024/02/14 11:23:26;;;;;;;6.90;4.93;;;12.60;99.90;;;;;;5061192;28;20218;-61
2024/02/14 11:26:15;;;;;;;10.95;5.75;;;12.60;99.90;;;;;;5060954;28;20220;-60
2024/02/14 11:28:40;;;;;;;10.18;5.93;;;12.60;99.90;;;;;;5060754;28;20221;-53
2024/02/14 11:31:09;;;;;;;8.35;6.28;;;12.60;99.90;;;;;;5060059;28;20187;-54
2024/02/14 11:33:35;;;;;;;11.20;6.63;;;12.50;99.90;;;;;;5060154;28;20896;-54
2024/02/14 11:36:10;;;;;;;11.93;7.20;;;12.50;99.90;;;;;;5059149;28;20248;-54
2024/02/14 11:38:36;;;;;;;10.70;7.22;;;12.50;99.90;;;;;;5061325;28;21198;-50
2024/02/14 11:41:03;;;;;;;12.65;7.95;;;12.50;99.90;;;;;;5058329;28;20187;-57
2024/02/14 11:43:54;;;;;;;11.88;7.85;;;12.50;99.90;;;;;;5060930;28;20232;-51
2024/02/14 11:46:20;;;;;;;14.60;7.38;;;12.50;99.90;;;;;;5060140;28;20206;-54
2024/02/14 11:48:46;;;;;;;16.08;7.22;;;12.50;99.90;;;;;;5060646;28;20226;-49
2024/02/14 11:51:11;;;;;;;13.80;7.40;;;12.50;99.90;;;;;;5060404;28;20186;-51
2024/02/14 11:53:39;;;;;;;11.07;6.75;;;12.50;99.90;;;;;;5059679;28;20186;-56
2024/02/14 11:56:05;;;;;;;9.90;6.70;;;12.60;99.90;;;;;;5060647;28;20243;-55
2024/02/14 11:58:31;;;;;;;10.05;6.05;;;12.60;99.90;;;;;;5059757;28;20217;-54
2024/02/14 12:00:57;;;;;;;9.45;6.22;;;12.60;99.90;;;;;;5060374;28;20226;-49
2024/02/14 12:03:23;;;;;;;8.80;6.07;;;12.60;99.90;;;;;;5059764;28;20218;-48
2024/02/14 12:05:53;;;;;;;7.57;5.15;;;12.70;99.90;;;;;;5060482;28;20674;-54
2024/02/14 12:08:20;;;;;;;6.72;5.00;;;12.70;99.90;;;;;;5060126;28;20229;-50
2024/02/14 12:10:47;;;;;;;6.53;5.10;;;12.70;99.90;;;;;;5059102;28;20202;-54
2024/02/14 12:13:14;;;;;;;4.95;3.92;;;12.70;99.90;;;;;;5060214;28;20181;-54
2024/02/14 12:15:41;;;;;;;6.40;4.68;;;12.70;99.90;;;;;;5060474;28;20254;-52
2024/02/14 12:18:10;;;;;;;4.93;4.07;;;12.70;99.90;;;;;;5060373;28;20195;-54
2024/02/14 12:20:36;;;;;;;5.85;4.03;;;12.80;99.90;;;;;;5058763;28;20191;-54
2024/02/14 12:23:03;;;;;;;5.65;4.32;;;12.80;99.90;;;;;;5060284;28;20221;-53
2024/02/14 12:25:30;;;;;;;5.40;4.18;;;12.80;99.90;;;;;;5058442;28;20576;-55
2024/02/14 12:27:58;;;;;;;6.05;4.20;;;12.80;99.90;;;;;;5059775;28;20337;-53
2024/02/14 12:30:45;;;;;;;5.07;4.20;;;12.80;99.90;;;;;;5060214;28;20179;-50
2024/02/14 12:33:14;;;;;;;4.93;3.97;;;12.80;99.90;;;;;;5050117;28;20205;-50
2024/02/14 12:35:45;;;;;;;4.88;4.38;;;12.80;99.90;;;;;;5057913;28;20658;-53
2024/02/14 12:38:12;;;;;;;6.20;4.30;;;12.80;99.90;;;;;;5060011;28;20506;-55
2024/02/14 12:40:38;;;;;;;6.05;4.35;;;12.80;99.90;;;;;;5059107;28;20187;-53